createdAt,value
2023-03-24T00:01:07.648Z,12.32
2023-03-24T00:03:40.037Z,12.70
2023-03-24T00:06:13.848Z,12.55
2023-03-24T00:08:48.154Z,12.80
2023-03-24T00:11:19.161Z,12.82
2023-03-24T00:13:50.730Z,12.52
2023-03-24T00:16:22.304Z,12.31
2023-03-24T00:18:55.595Z,12.49
2023-03-24T00:21:26.931Z,12.60
2023-03-24T00:23:59.825Z,12.61
2023-03-24T00:26:30.203Z,12.74
2023-03-24T00:28:59.937Z,12.57
2023-03-24T00:31:29.706Z,12.15
2023-03-24T00:34:03.155Z,12.27
2023-03-24T00:36:32.835Z,12.18
2023-03-24T00:39:02.679Z,12.02
2023-03-24T00:41:32.410Z,12.26
2023-03-24T00:44:03.922Z,12.33
2023-03-24T00:46:35.475Z,12.51
2023-03-24T00:49:12.234Z,12.55
2023-03-24T00:51:45.788Z,12.23
2023-03-24T00:54:16.479Z,12.25
2023-03-24T00:56:50.107Z,12.12
2023-03-24T00:59:21.547Z,11.86
2023-03-24T01:01:51.257Z,11.71
2023-03-24T01:04:24.583Z,11.92
2023-03-24T01:06:54.556Z,11.94
2023-03-24T01:09:24.384Z,11.97
2023-03-24T01:11:54.958Z,12.12
2023-03-24T01:14:24.739Z,11.91
2023-03-24T01:16:54.373Z,11.62
2023-03-24T01:19:27.174Z,11.65
2023-03-24T01:21:57.487Z,11.70
2023-03-24T01:24:27.820Z,11.56
2023-03-24T01:26:57.526Z,11.73
2023-03-24T01:29:27.220Z,11.66
2023-03-24T01:31:56.947Z,11.60
2023-03-24T01:34:29.280Z,11.61
2023-03-24T01:36:58.936Z,11.66
2023-03-24T01:39:29.917Z,11.89
2023-03-24T01:42:00.130Z,11.79
2023-03-24T01:44:34.322Z,12.00
2023-03-24T01:47:05.214Z,12.33
2023-03-24T01:49:41.678Z,12.01
2023-03-24T01:52:25.355Z,12.36
2023-03-24T01:54:58.165Z,12.17
2023-03-24T01:57:30.881Z,12.11
2023-03-24T02:00:05.246Z,11.88
2023-03-24T02:02:58.922Z,11.89
2023-03-24T02:05:36.718Z,11.92
2023-03-24T02:08:11.009Z,12.12
2023-03-24T02:10:41.535Z,11.92
2023-03-24T02:13:11.539Z,12.28
2023-03-24T02:15:48.258Z,12.36
2023-03-24T02:18:26.052Z,12.50
2023-03-24T02:21:32.866Z,12.64
2023-03-24T02:24:42.722Z,12.44
2023-03-24T02:27:31.876Z,12.13
2023-03-24T02:30:19.701Z,12.43
2023-03-24T02:33:14.200Z,12.05
2023-03-24T02:36:29.292Z,12.32
2023-03-24T02:39:43.772Z,12.46
2023-03-24T02:42:26.434Z,12.62
2023-03-24T02:45:08.372Z,12.56
2023-03-24T02:47:46.475Z,12.72
2023-03-24T02:50:24.909Z,12.69
2023-03-24T02:53:04.373Z,12.71
2023-03-24T02:55:39.993Z,12.59
2023-03-24T02:58:20.134Z,12.65
2023-03-24T03:01:00.084Z,12.78
2023-03-24T03:04:02.003Z,12.72
2023-03-24T03:06:36.526Z,12.27
2023-03-24T03:09:10.257Z,12.56
2023-03-24T03:11:42.334Z,12.64
2023-03-24T03:14:20.650Z,12.93
2023-03-24T03:17:00.223Z,12.85
2023-03-24T03:19:34.863Z,12.69
2023-03-24T03:22:07.646Z,12.77
2023-03-24T03:24:43.496Z,12.88
2023-03-24T03:27:15.363Z,12.85
2023-03-24T03:29:54.502Z,12.88
2023-03-24T03:32:28.959Z,13.11
2023-03-24T03:35:04.319Z,12.98
2023-03-24T03:37:44.883Z,13.11
2023-03-24T03:40:21.912Z,12.95
2023-03-24T03:42:56.848Z,13.07
2023-03-24T03:45:29.446Z,13.13
2023-03-24T03:47:59.422Z,12.85
2023-03-24T03:50:29.490Z,12.97
2023-03-24T03:53:03.907Z,12.97
2023-03-24T03:55:35.512Z,12.98
2023-03-24T03:58:07.273Z,13.21
2023-03-24T04:00:47.010Z,13.11
2023-03-24T04:03:54.010Z,13.13
2023-03-24T04:06:41.056Z,13.10
2023-03-24T04:09:27.608Z,13.17
2023-03-24T04:12:14.379Z,13.02
2023-03-24T04:15:08.801Z,13.17
2023-03-24T04:18:15.583Z,13.16
2023-03-24T04:21:06.717Z,13.16
2023-03-24T04:23:46.187Z,13.19
2023-03-24T04:26:26.812Z,13.45
2023-03-24T04:29:10.096Z,13.38
2023-03-24T04:31:45.114Z,13.31
2023-03-24T04:34:26.195Z,13.12
2023-03-24T04:37:02.953Z,13.40
2023-03-24T04:39:45.816Z,13.21
2023-03-24T04:42:24.540Z,12.87
2023-03-24T04:44:57.743Z,13.07
2023-03-24T04:47:51.135Z,13.04
2023-03-24T04:50:57.046Z,13.08
2023-03-24T04:53:29.393Z,12.86
2023-03-24T04:56:16.577Z,13.24
2023-03-24T04:58:59.415Z,13.31
2023-03-24T05:01:30.439Z,13.42
2023-03-24T05:04:38.810Z,13.12
2023-03-24T05:07:28.640Z,13.19
2023-03-24T05:10:01.971Z,13.23
2023-03-24T05:12:33.213Z,13.30
2023-03-24T05:15:21.187Z,13.38
2023-03-24T05:17:55.821Z,13.15
2023-03-24T05:20:30.122Z,13.48
2023-03-24T05:23:11.736Z,13.37
2023-03-24T05:25:43.157Z,13.21
2023-03-24T05:28:13.033Z,13.30
2023-03-24T05:30:42.957Z,13.36
2023-03-24T05:33:40.743Z,13.44
2023-03-24T05:36:15.091Z,13.02
2023-03-24T05:38:50.213Z,13.18
2023-03-24T05:41:19.937Z,13.25
2023-03-24T05:43:49.695Z,13.28
2023-03-24T05:46:20.368Z,13.05
2023-03-24T05:48:52.053Z,13.15
2023-03-24T05:51:23.041Z,13.09
2023-03-24T05:54:06.503Z,13.09
2023-03-24T05:56:59.285Z,13.62
2023-03-24T05:59:29.209Z,13.45
2023-03-24T06:02:10.861Z,13.14
2023-03-24T06:04:53.707Z,13.24
2023-03-24T06:07:27.028Z,13.32
2023-03-24T06:10:03.258Z,13.31
2023-03-24T06:12:41.551Z,13.31
2023-03-24T06:15:17.755Z,13.22
2023-03-24T06:17:50.454Z,13.26
2023-03-24T06:20:29.270Z,13.24
2023-03-24T06:23:06.290Z,13.24
2023-03-24T06:25:47.741Z,13.51
2023-03-24T06:28:26.305Z,13.44
2023-03-24T06:30:59.209Z,13.47
2023-03-24T06:33:35.446Z,13.44
2023-03-24T06:36:07.655Z,13.37
2023-03-24T06:38:37.455Z,13.45
2023-03-24T06:41:11.971Z,13.37
2023-03-24T06:43:41.672Z,13.97
2023-03-24T06:46:12.042Z,13.61
2023-03-24T06:48:44.941Z,13.94
2023-03-24T06:51:14.749Z,13.69
2023-03-24T06:53:45.923Z,13.76
2023-03-24T06:56:21.234Z,13.96
2023-03-24T06:58:57.070Z,13.60
2023-03-24T07:01:38.732Z,14.24
2023-03-24T07:04:20.335Z,14.06
2023-03-24T07:07:12.529Z,13.77
2023-03-24T07:09:47.312Z,13.95
2023-03-24T07:12:19.658Z,14.07
2023-03-24T07:14:49.420Z,14.07
2023-03-24T07:17:19.332Z,13.76
2023-03-24T07:20:09.758Z,14.44
2023-03-24T07:22:50.693Z,14.06
2023-03-24T07:25:29.583Z,14.44
2023-03-24T07:28:22.666Z,14.26
2023-03-24T07:30:55.258Z,14.40
2023-03-24T07:33:26.742Z,14.33
2023-03-24T07:36:00.157Z,14.86
2023-03-24T07:38:30.023Z,14.91
2023-03-24T07:41:05.742Z,14.23
2023-03-24T07:43:41.570Z,14.02
2023-03-24T07:46:22.800Z,14.00
2023-03-24T07:48:52.848Z,14.04
2023-03-24T07:51:23.107Z,13.96
2023-03-24T07:53:57.087Z,14.13
2023-03-24T07:56:33.254Z,14.12
2023-03-24T07:59:07.923Z,14.31
2023-03-24T08:01:58.466Z,14.51
2023-03-24T08:04:43.073Z,14.21
2023-03-24T08:07:42.716Z,14.59
2023-03-24T08:10:13.952Z,14.13
2023-03-24T08:12:44.268Z,14.19
2023-03-24T08:15:16.800Z,13.83
2023-03-24T08:17:47.685Z,13.63
2023-03-24T08:20:18.082Z,13.43
2023-03-24T08:22:50.236Z,13.42
2023-03-24T08:25:22.078Z,13.37
2023-03-24T08:27:51.919Z,13.38
2023-03-24T08:30:26.596Z,13.31
2023-03-24T08:32:58.270Z,13.34
2023-03-24T08:35:31.649Z,13.28
2023-03-24T08:38:06.019Z,13.31
2023-03-24T08:40:37.487Z,13.45
2023-03-24T08:43:11.195Z,13.54
2023-03-24T08:45:43.802Z,13.67
2023-03-24T08:48:13.765Z,13.85
2023-03-24T08:50:44.577Z,14.01
2023-03-24T08:53:14.424Z,14.05
2023-03-24T08:55:45.652Z,14.20
2023-03-24T08:58:20.417Z,14.32
2023-03-24T09:00:53.031Z,14.57
2023-03-24T09:03:23.079Z,15.02
2023-03-24T09:05:53.451Z,14.71
2023-03-24T09:08:23.179Z,15.38
2023-03-24T09:10:53.122Z,15.14
2023-03-24T09:13:23.336Z,14.99
2023-03-24T09:16:01.044Z,14.79
2023-03-24T09:18:31.804Z,14.68
2023-03-24T09:21:01.611Z,14.69
2023-03-24T09:23:31.862Z,14.76
2023-03-24T09:26:03.046Z,14.58
2023-03-24T09:28:33.294Z,14.51
2023-03-24T09:31:08.126Z,14.70
2023-03-24T09:33:38.531Z,14.57
2023-03-24T09:36:09.179Z,14.84
2023-03-24T09:38:38.922Z,14.97
2023-03-24T09:41:19.918Z,14.74
2023-03-24T09:43:56.919Z,15.04
2023-03-24T09:46:34.116Z,14.84
2023-03-24T09:49:03.789Z,14.65
2023-03-24T09:51:37.204Z,14.76
2023-03-24T09:54:17.141Z,14.97
2023-03-24T09:56:51.303Z,15.35
2023-03-24T09:59:23.558Z,14.89
2023-03-24T10:01:55.834Z,14.84
2023-03-24T10:04:32.319Z,15.21
2023-03-24T10:07:06.902Z,15.09
2023-03-24T10:09:38.092Z,15.12
2023-03-24T10:12:24.110Z,15.01
2023-03-24T10:15:05.728Z,14.95
2023-03-24T10:17:46.237Z,14.95
2023-03-24T10:20:27.627Z,15.18
2023-03-24T10:23:04.102Z,14.58
2023-03-24T10:25:53.516Z,15.13
2023-03-24T10:28:28.853Z,15.22
2023-03-24T10:31:04.167Z,14.95
2023-03-24T10:33:37.740Z,14.79
2023-03-24T10:36:11.113Z,14.81
2023-03-24T10:38:41.239Z,14.78
2023-03-24T10:41:19.402Z,14.87
2023-03-24T10:43:50.575Z,14.88
2023-03-24T10:46:24.231Z,14.59
2023-03-24T10:49:10.199Z,14.75
2023-03-24T10:51:41.498Z,14.70
2023-03-24T10:54:18.596Z,14.52
2023-03-24T10:56:50.753Z,14.84
2023-03-24T10:59:28.933Z,14.61
2023-03-24T11:02:02.323Z,14.39
2023-03-24T11:04:35.798Z,14.38
2023-03-24T11:07:08.696Z,14.21
2023-03-24T11:09:45.405Z,14.13
2023-03-24T11:12:26.303Z,14.24
2023-03-24T11:15:14.166Z,14.55
2023-03-24T11:17:51.249Z,14.49
2023-03-24T11:20:29.462Z,14.54
2023-03-24T11:23:02.731Z,14.34
2023-03-24T11:25:34.628Z,14.34
2023-03-24T11:28:09.026Z,14.47
2023-03-24T11:30:48.677Z,14.71
2023-03-24T11:33:35.641Z,14.68
2023-03-24T11:36:47.319Z,14.46
2023-03-24T11:39:21.665Z,14.75
2023-03-24T11:42:03.362Z,14.63
2023-03-24T11:44:35.947Z,14.54
2023-03-24T11:47:13.095Z,14.54
2023-03-24T11:49:47.065Z,14.60
2023-03-24T11:52:25.232Z,14.68
2023-03-24T11:54:55.169Z,14.85
2023-03-24T11:57:45.552Z,14.73
2023-03-24T12:00:23.010Z,15.03
2023-03-24T12:03:14.405Z,14.78
2023-03-24T12:05:48.308Z,15.23
2023-03-24T12:08:26.561Z,15.11
2023-03-24T12:11:09.551Z,15.02
2023-03-24T12:13:42.118Z,14.97
2023-03-24T12:16:22.917Z,14.96
2023-03-24T12:19:04.375Z,15.09
2023-03-24T12:21:46.838Z,15.02
2023-03-24T12:24:29.542Z,14.90
2023-03-24T12:27:02.204Z,14.65
2023-03-24T12:30:02.969Z,14.52
2023-03-24T12:32:49.167Z,14.34
2023-03-24T12:35:54.978Z,14.54
2023-03-24T12:38:37.481Z,14.48
2023-03-24T12:41:25.027Z,14.58
2023-03-24T12:44:10.585Z,14.76
2023-03-24T12:46:52.508Z,14.71
2023-03-24T12:49:42.436Z,14.59
2023-03-24T12:52:28.230Z,14.71
2023-03-24T12:55:05.002Z,14.92
2023-03-24T12:57:42.453Z,15.10
2023-03-24T13:00:18.314Z,15.38
2023-03-24T13:02:50.144Z,15.37
2023-03-24T13:05:25.431Z,15.35
2023-03-24T13:07:59.135Z,15.21
2023-03-24T13:10:31.125Z,14.85
2023-03-24T13:13:09.181Z,14.75
2023-03-24T13:15:43.263Z,14.99
2023-03-24T13:18:26.649Z,15.08
2023-03-24T13:20:59.056Z,14.76
2023-03-24T13:23:43.815Z,14.96
2023-03-24T13:26:38.849Z,14.98
2023-03-24T13:29:38.381Z,15.10
2023-03-24T13:32:27.309Z,15.18
2023-03-24T13:35:01.576Z,15.31
2023-03-24T13:37:38.332Z,15.12
2023-03-24T13:40:13.955Z,15.47
2023-03-24T13:42:48.523Z,15.38
2023-03-24T13:45:34.882Z,15.44
2023-03-24T13:48:09.843Z,15.45
2023-03-24T13:50:42.246Z,15.33
2023-03-24T13:53:17.599Z,15.18
2023-03-24T13:55:52.979Z,15.06
2023-03-24T13:58:24.872Z,15.10
2023-03-24T14:01:20.974Z,15.07
2023-03-24T14:04:25.747Z,15.23
2023-03-24T14:06:59.583Z,15.64
2023-03-24T14:09:31.430Z,15.67
2023-03-24T14:12:23.487Z,15.88
2023-03-24T14:15:17.314Z,15.98
2023-03-24T14:17:49.009Z,16.09
2023-03-24T14:20:37.150Z,15.88
2023-03-24T14:23:25.676Z,15.90
2023-03-24T14:25:59.399Z,15.45
2023-03-24T14:28:34.835Z,15.87
2023-03-24T14:31:13.434Z,15.64
2023-03-24T14:33:46.593Z,15.61
2023-03-24T14:36:25.569Z,15.54
2023-03-24T14:38:58.187Z,15.66
2023-03-24T14:41:34.402Z,15.62
2023-03-24T14:44:04.623Z,15.77
2023-03-24T14:46:48.180Z,16.09
2023-03-24T14:49:26.767Z,15.98
2023-03-24T14:52:14.021Z,16.11
2023-03-24T14:54:51.435Z,15.59
2023-03-24T14:57:24.919Z,15.61
2023-03-24T15:00:01.679Z,15.74
2023-03-24T15:02:37.728Z,16.01
2023-03-24T15:05:25.130Z,16.01
2023-03-24T15:08:11.608Z,15.97
2023-03-24T15:10:49.899Z,15.90
2023-03-24T15:13:33.478Z,15.73
2023-03-24T15:16:06.864Z,15.78
2023-03-24T15:18:40.374Z,15.87
2023-03-24T15:21:18.617Z,16.12
2023-03-24T15:23:50.732Z,16.03
2023-03-24T15:26:25.207Z,16.03
2023-03-24T15:28:59.763Z,15.73
2023-03-24T15:31:31.938Z,15.37
2023-03-24T15:34:11.283Z,15.27
2023-03-24T15:36:45.801Z,15.62
2023-03-24T15:39:21.973Z,15.72
2023-03-24T15:41:55.867Z,15.46
2023-03-24T15:44:31.347Z,15.33
2023-03-24T15:47:02.712Z,15.17
2023-03-24T15:49:35.771Z,15.28
2023-03-24T15:52:09.021Z,15.54
2023-03-24T15:54:42.659Z,15.60
2023-03-24T15:57:21.194Z,15.92
2023-03-24T15:59:53.564Z,15.91
2023-03-24T16:02:30.238Z,15.66
2023-03-24T16:07:37.817Z,15.36
2023-03-24T16:10:09.945Z,15.43
2023-03-24T16:12:42.240Z,15.49
2023-03-24T16:15:16.098Z,15.52
2023-03-24T16:17:46.550Z,15.61
2023-03-24T16:20:23.415Z,15.23
2023-03-24T16:22:53.057Z,15.32
2023-03-24T16:25:22.697Z,15.10
2023-03-24T16:27:54.968Z,15.05
2023-03-24T16:30:27.475Z,15.11
2023-03-24T16:32:57.185Z,15.08
2023-03-24T16:35:26.902Z,14.97
2023-03-24T16:37:56.579Z,14.88
2023-03-24T16:40:34.514Z,15.04
2023-03-24T16:43:07.007Z,15.03
2023-03-24T16:45:36.730Z,15.17
2023-03-24T16:48:06.642Z,14.91
2023-03-24T16:50:39.747Z,15.28
2023-03-24T16:53:09.852Z,15.05
2023-03-24T16:55:41.545Z,15.03
2023-03-24T16:58:16.464Z,14.90
2023-03-24T17:00:49.358Z,14.94
2023-03-24T17:03:19.407Z,14.68
2023-03-24T17:05:51.426Z,14.82
2023-03-24T17:08:21.942Z,14.90
2023-03-24T17:10:54.277Z,14.46
2023-03-24T17:13:28.359Z,14.45
2023-03-24T17:15:58.076Z,14.54
2023-03-24T17:18:28.088Z,13.95
2023-03-24T17:20:57.854Z,12.91
2023-03-24T17:23:27.968Z,11.83
2023-03-24T17:25:57.665Z,11.98
2023-03-24T17:28:29.945Z,11.83
2023-03-24T17:30:59.622Z,11.98
2023-03-24T17:33:29.310Z,11.84
2023-03-24T17:35:59.237Z,11.67
2023-03-24T17:38:29.121Z,11.82
2023-03-24T17:41:03.691Z,11.80
2023-03-24T17:43:36.167Z,11.85
2023-03-24T17:46:06.156Z,11.55
2023-03-24T17:48:36.503Z,11.32
2023-03-24T17:51:07.328Z,11.35
2023-03-24T17:53:37.144Z,11.11
2023-03-24T17:56:07.972Z,11.37
2023-03-24T17:58:41.867Z,11.57
2023-03-24T18:01:14.953Z,11.55
2023-03-24T18:03:44.665Z,11.38
2023-03-24T18:06:17.091Z,11.22
2023-03-24T18:08:47.382Z,11.13
2023-03-24T18:11:17.872Z,11.07
2023-03-24T18:13:50.755Z,10.94
2023-03-24T18:16:22.129Z,10.87
2023-03-24T18:18:53.716Z,10.85
2023-03-24T18:21:23.701Z,10.91
2023-03-24T18:23:53.584Z,10.91
2023-03-24T18:26:23.612Z,10.87
2023-03-24T18:28:56.421Z,10.59
2023-03-24T18:31:26.533Z,10.46
2023-03-24T18:33:57.288Z,10.39
2023-03-24T18:36:29.320Z,10.23
2023-03-24T18:39:02.076Z,10.09
2023-03-24T18:41:32.265Z,10.16
2023-03-24T18:44:04.557Z,10.07
2023-03-24T18:46:34.739Z,10.39
2023-03-24T18:49:04.498Z,10.32
2023-03-24T18:51:35.763Z,10.16
2023-03-24T18:54:06.648Z,10.12
2023-03-24T18:56:36.583Z,10.10
2023-03-24T18:59:09.398Z,9.96
2023-03-24T19:01:39.525Z,10.08
2023-03-24T19:04:09.782Z,10.09
2023-03-24T19:06:42.483Z,9.81
2023-03-24T19:09:13.848Z,9.77
2023-03-24T19:11:45.185Z,9.69
2023-03-24T19:14:17.478Z,9.95
2023-03-24T19:16:47.260Z,10.15
2023-03-24T19:19:18.649Z,9.99
2023-03-24T19:21:48.953Z,10.21
2023-03-24T19:24:18.620Z,10.26
2023-03-24T19:26:48.422Z,9.89
2023-03-24T19:29:21.243Z,9.96
2023-03-24T19:31:51.549Z,10.11
2023-03-24T19:34:21.177Z,9.94
2023-03-24T19:36:52.174Z,9.96
2023-03-24T19:39:22.642Z,10.18
2023-03-24T19:41:52.405Z,10.16
2023-03-24T19:44:25.165Z,10.27
2023-03-24T19:46:54.885Z,10.14
2023-03-24T19:49:24.514Z,10.18
2023-03-24T19:51:54.170Z,10.13
2023-03-24T19:54:24.326Z,10.16
2023-03-24T19:56:54.775Z,10.13
2023-03-24T19:59:27.656Z,10.26
2023-03-24T20:01:57.629Z,10.36
2023-03-24T20:04:28.004Z,10.14
2023-03-24T20:06:58.718Z,10.44
2023-03-24T20:09:28.767Z,10.35
2023-03-24T20:11:58.571Z,10.33
2023-03-24T20:14:31.706Z,10.34
2023-03-24T20:17:02.574Z,10.41
2023-03-24T20:19:32.976Z,10.37
2023-03-24T20:22:02.834Z,10.36
2023-03-24T20:24:33.168Z,10.33
2023-03-24T20:27:03.921Z,10.32
2023-03-24T20:29:36.776Z,10.36
2023-03-24T20:32:10.173Z,10.34
2023-03-24T20:34:40.971Z,10.19
2023-03-24T20:37:11.133Z,10.35
2023-03-24T20:39:43.599Z,10.29
2023-03-24T20:42:14.470Z,10.21
2023-03-24T20:44:47.165Z,10.28
2023-03-24T20:47:17.401Z,10.06
2023-03-24T20:49:47.380Z,10.22
2023-03-24T20:52:17.361Z,10.04
2023-03-24T20:54:47.098Z,10.23
2023-03-24T20:57:17.579Z,10.46
2023-03-24T20:59:51.463Z,10.93
2023-03-24T21:02:21.566Z,10.71
2023-03-24T21:04:51.727Z,10.84
2023-03-24T21:07:21.737Z,10.76
2023-03-24T21:09:51.385Z,10.17
2023-03-24T21:12:22.062Z,10.15
2023-03-24T21:14:54.328Z,10.36
2023-03-24T21:17:32.278Z,10.31
2023-03-24T21:20:12.917Z,10.26
2023-03-24T21:22:53.507Z,10.20
2023-03-24T21:25:24.381Z,10.09
2023-03-24T21:27:54.512Z,10.03
2023-03-24T21:30:27.898Z,10.15
2023-03-24T21:32:59.137Z,10.03
2023-03-24T21:35:29.193Z,10.14
2023-03-24T21:37:59.125Z,10.13
2023-03-24T21:40:28.842Z,10.12
2023-03-24T21:43:04.624Z,10.29
2023-03-24T21:45:38.724Z,10.22
2023-03-24T21:48:09.688Z,10.27
2023-03-24T21:50:39.451Z,10.32
2023-03-24T21:53:15.405Z,10.11
2023-03-24T21:55:52.628Z,9.99
2023-03-24T21:58:22.740Z,10.14
2023-03-24T22:00:57.895Z,10.22
2023-03-24T22:03:28.113Z,9.98
2023-03-24T22:05:59.845Z,10.19
2023-03-24T22:08:30.868Z,9.96
2023-03-24T22:11:04.382Z,9.85
2023-03-24T22:13:37.262Z,9.76
2023-03-24T22:16:10.788Z,9.81
2023-03-24T22:18:40.613Z,9.79
2023-03-24T22:21:12.644Z,9.60
2023-03-24T22:23:43.223Z,9.45
2023-03-24T22:26:15.605Z,9.63
2023-03-24T22:28:45.831Z,9.35
2023-03-24T22:31:23.207Z,9.48
2023-03-24T22:33:53.964Z,9.01
2023-03-24T22:36:23.697Z,9.37
2023-03-24T22:38:53.715Z,9.75
2023-03-24T22:41:23.504Z,9.85
2023-03-24T22:43:53.184Z,9.79
2023-03-24T22:46:25.690Z,9.49
2023-03-24T22:48:55.421Z,9.12
2023-03-24T22:51:25.111Z,9.42
2023-03-24T22:53:54.991Z,9.69
2023-03-24T22:56:25.158Z,9.64
2023-03-24T22:58:54.882Z,9.80
2023-03-24T23:01:27.188Z,9.49
2023-03-24T23:03:56.962Z,9.45
2023-03-24T23:06:28.188Z,9.27
2023-03-24T23:08:59.661Z,9.14
2023-03-24T23:11:29.512Z,9.16
2023-03-24T23:14:05.309Z,9.04
2023-03-24T23:16:40.538Z,9.04
2023-03-24T23:19:11.169Z,9.16
2023-03-24T23:21:41.163Z,9.22
2023-03-24T23:24:11.116Z,8.94
2023-03-24T23:26:40.858Z,9.07
2023-03-24T23:29:11.246Z,9.03
2023-03-24T23:31:43.505Z,9.02
2023-03-24T23:34:14.644Z,8.98
2023-03-24T23:36:45.007Z,8.95
2023-03-24T23:39:14.744Z,8.93
2023-03-24T23:41:44.452Z,8.97
2023-03-24T23:44:14.998Z,8.82
2023-03-24T23:46:47.225Z,8.90
2023-03-24T23:49:17.114Z,8.91
2023-03-24T23:51:46.776Z,8.83
2023-03-24T23:54:16.444Z,8.99
2023-03-24T23:56:47.411Z,9.39
2023-03-24T23:59:17.141Z,9.56
